createdAt,value
2019-02-17T00:00:48.416Z,62.50
2019-02-17T00:03:19.385Z,62.45
2019-02-17T00:37:27.314Z,63.78
2019-02-17T00:39:56.785Z,63.91
2019-02-17T00:42:26.283Z,64.11
2019-02-17T00:44:55.716Z,64.29
2019-02-17T00:47:25.168Z,64.48
2019-02-17T00:49:54.646Z,64.65
2019-02-17T00:52:25.264Z,64.83
2019-02-17T00:54:54.678Z,65.04
2019-02-17T00:57:24.087Z,65.09
2019-02-17T00:59:53.565Z,65.12
2019-02-17T01:02:22.972Z,65.27
2019-02-17T01:04:52.393Z,65.34
2019-02-17T01:07:21.854Z,65.44
2019-02-17T01:09:51.270Z,65.53
2019-02-17T01:12:20.882Z,65.65
2019-02-17T01:14:50.332Z,65.75
2019-02-17T01:17:19.754Z,65.78
2019-02-17T01:19:49.199Z,65.86
2019-02-17T01:22:18.666Z,65.97
2019-02-17T01:24:48.109Z,66.07
2019-02-17T01:27:17.559Z,66.18
2019-02-17T01:29:46.982Z,66.19
2019-02-17T01:32:16.439Z,66.24
2019-02-17T01:34:45.883Z,66.33
2019-02-17T01:37:15.303Z,66.40
2019-02-17T01:39:50.474Z,66.51
2019-02-17T01:42:20.364Z,66.56
2019-02-17T01:44:49.892Z,66.78
2019-02-17T01:47:19.356Z,66.77
2019-02-17T01:49:48.944Z,66.91
2019-02-17T01:52:18.392Z,66.85
2019-02-17T01:54:47.999Z,66.77
2019-02-17T01:57:17.592Z,66.84
2019-02-17T01:59:47.043Z,66.91
2019-02-17T02:02:16.466Z,67.05
2019-02-17T02:04:45.913Z,67.16
2019-02-17T02:07:15.314Z,67.23
2019-02-17T02:09:44.815Z,67.33
2019-02-17T02:12:14.276Z,67.51
2019-02-17T02:14:43.809Z,67.68
2019-02-17T02:17:13.215Z,67.76
2019-02-17T02:19:42.692Z,67.91
2019-02-17T02:22:13.216Z,68.39
2019-02-17T02:24:42.697Z,68.39
2019-02-17T02:27:12.118Z,68.37
2019-02-17T02:29:41.686Z,68.41
2019-02-17T02:32:11.092Z,68.44
2019-02-17T02:34:41.720Z,68.43
2019-02-17T02:37:11.149Z,68.37
2019-02-17T02:39:40.600Z,68.31
2019-02-17T02:42:10.130Z,68.24
2019-02-17T02:44:39.604Z,68.17
2019-02-17T02:47:09.011Z,68.14
2019-02-17T02:49:38.480Z,68.15
2019-02-17T02:52:07.964Z,68.26
2019-02-17T02:54:37.366Z,68.43
2019-02-17T02:57:06.818Z,68.53
2019-02-17T02:59:36.294Z,68.62
2019-02-17T03:02:05.697Z,68.75
2019-02-17T03:04:35.148Z,68.96
2019-02-17T03:07:04.613Z,69.17
2019-02-17T03:09:34.072Z,69.39
2019-02-17T03:12:04.304Z,69.50
2019-02-17T03:14:33.770Z,69.58
2019-02-17T03:17:03.189Z,69.61
2019-02-17T03:19:32.688Z,69.70
2019-02-17T03:22:02.175Z,69.84
2019-02-17T03:24:31.648Z,70.35
2019-02-17T03:27:02.219Z,70.24
2019-02-17T03:29:31.757Z,70.28
2019-02-17T03:32:01.214Z,70.23
2019-02-17T03:34:30.660Z,70.84
2019-02-17T03:37:01.083Z,70.75
2019-02-17T03:39:30.488Z,70.75
2019-02-17T03:42:00.326Z,70.80
2019-02-17T03:44:29.786Z,70.91
2019-02-17T03:46:59.238Z,70.88
2019-02-17T03:49:29.618Z,70.90
2019-02-17T03:51:59.065Z,71.02
2019-02-17T03:54:28.540Z,70.94
2019-02-17T03:56:57.940Z,71.00
2019-02-17T03:59:27.344Z,71.02
2019-02-17T04:01:56.857Z,71.14
2019-02-17T04:04:26.258Z,71.23
2019-02-17T04:06:55.689Z,71.37
2019-02-17T04:09:25.155Z,71.49
2019-02-17T04:11:54.566Z,71.61
2019-02-17T04:14:24.015Z,71.65
2019-02-17T04:16:53.488Z,71.65
2019-02-17T04:19:22.951Z,71.67
2019-02-17T04:21:52.355Z,71.67
2019-02-17T04:24:21.807Z,71.84
2019-02-17T04:26:51.260Z,71.80
2019-02-17T04:29:20.680Z,71.86
2019-02-17T04:31:50.122Z,71.88
2019-02-17T04:34:20.591Z,72.00
2019-02-17T04:36:50.141Z,72.16
2019-02-17T04:39:19.621Z,72.17
2019-02-17T04:41:49.084Z,72.17
2019-02-17T04:44:18.483Z,72.29
2019-02-17T04:46:47.950Z,72.32
2019-02-17T04:49:17.396Z,72.40
2019-02-17T04:51:46.871Z,72.39
2019-02-17T04:54:16.405Z,72.42
2019-02-17T04:56:45.848Z,72.45
2019-02-17T04:59:15.300Z,72.47
2019-02-17T05:01:44.718Z,72.53
2019-02-17T05:04:14.176Z,72.62
2019-02-17T05:06:43.585Z,72.61
2019-02-17T05:09:13.144Z,72.63
2019-02-17T05:11:42.656Z,72.73
2019-02-17T05:14:12.097Z,72.89
2019-02-17T05:16:41.909Z,72.98
2019-02-17T05:19:11.366Z,73.07
2019-02-17T05:21:40.772Z,73.16
2019-02-17T05:24:10.293Z,73.45
2019-02-17T05:26:39.746Z,73.58
2019-02-17T05:29:09.221Z,73.58
2019-02-17T05:31:38.661Z,73.59
2019-02-17T05:34:08.124Z,73.59
2019-02-17T05:36:37.572Z,73.64
2019-02-17T05:39:07.210Z,73.81
2019-02-17T05:41:36.650Z,73.94
2019-02-17T05:44:06.065Z,73.96
2019-02-17T05:46:35.789Z,73.98
2019-02-17T05:49:05.211Z,73.95
2019-02-17T05:51:34.696Z,73.95
2019-02-17T05:54:04.359Z,73.98
2019-02-17T05:56:33.830Z,74.04
2019-02-17T05:59:03.270Z,74.04
2019-02-17T06:01:32.692Z,74.12
2019-02-17T06:04:02.166Z,74.07
2019-02-17T06:06:31.614Z,74.09
2019-02-17T06:09:01.065Z,74.05
2019-02-17T06:11:31.949Z,73.94
2019-02-17T06:14:01.465Z,73.92
2019-02-17T06:16:31.004Z,73.88
2019-02-17T06:19:00.407Z,73.93
2019-02-17T06:21:29.847Z,73.93
2019-02-17T06:23:59.371Z,73.85
2019-02-17T06:26:29.897Z,73.84
2019-02-17T06:28:59.371Z,73.71
2019-02-17T06:31:28.777Z,73.73
2019-02-17T06:33:58.204Z,73.71
2019-02-17T06:36:27.682Z,73.66
2019-02-17T06:38:57.367Z,73.68
2019-02-17T06:41:26.813Z,73.73
2019-02-17T06:43:56.259Z,73.75
2019-02-17T06:46:27.372Z,73.71
2019-02-17T06:48:56.792Z,73.58
2019-02-17T06:51:26.201Z,73.55
2019-02-17T06:53:55.756Z,73.40
2019-02-17T06:56:29.582Z,73.36
2019-02-17T06:58:59.004Z,73.29
2019-02-17T07:01:28.749Z,73.21
2019-02-17T07:03:58.162Z,73.12
2019-02-17T07:06:32.184Z,73.04
2019-02-17T07:09:01.605Z,72.91
2019-02-17T07:11:31.422Z,72.75
2019-02-17T07:14:00.833Z,72.65
2019-02-17T07:16:30.306Z,72.59
2019-02-17T07:18:59.734Z,72.52
2019-02-17T07:21:29.183Z,72.46
2019-02-17T07:23:58.672Z,72.35
2019-02-17T07:26:28.096Z,72.22
2019-02-17T07:28:57.560Z,72.10
2019-02-17T07:31:34.680Z,71.95
2019-02-17T07:33:59.132Z,71.85
2019-02-17T07:36:28.609Z,71.78
2019-02-17T07:38:58.065Z,71.66
2019-02-17T07:41:27.523Z,71.50
2019-02-17T07:43:56.928Z,71.28
2019-02-17T07:46:26.401Z,71.11
2019-02-17T07:48:55.810Z,70.96
2019-02-17T07:51:25.279Z,70.82
2019-02-17T07:53:55.654Z,70.59
2019-02-17T07:56:25.131Z,70.35
2019-02-17T07:58:54.584Z,70.08
2019-02-17T08:01:24.037Z,69.88
2019-02-17T08:03:53.588Z,69.69
2019-02-17T08:06:23.228Z,69.48
2019-02-17T08:08:52.631Z,69.22
2019-02-17T08:11:22.165Z,68.89
2019-02-17T08:13:51.698Z,68.65
2019-02-17T08:16:21.163Z,68.40
2019-02-17T08:18:50.626Z,68.27
2019-02-17T08:21:20.039Z,68.11
2019-02-17T08:23:49.457Z,67.99
2019-02-17T08:26:18.924Z,67.91
2019-02-17T08:28:48.382Z,67.85
2019-02-17T08:31:17.842Z,67.80
2019-02-17T08:33:48.756Z,67.56
2019-02-17T08:36:18.206Z,67.52
2019-02-17T08:38:47.628Z,67.38
2019-02-17T08:41:17.109Z,67.18
2019-02-17T08:43:46.564Z,66.95
2019-02-17T08:46:16.004Z,66.71
2019-02-17T08:48:45.406Z,66.41
2019-02-17T08:51:14.818Z,66.10
2019-02-17T08:53:44.284Z,65.84
2019-02-17T08:56:13.811Z,65.62
2019-02-17T08:58:43.230Z,65.30
2019-02-17T09:01:12.660Z,65.13
2019-02-17T09:03:42.178Z,64.92
2019-02-17T09:06:11.627Z,64.54
2019-02-17T09:08:41.077Z,64.23
2019-02-17T09:11:11.098Z,64.05
2019-02-17T09:13:40.854Z,63.81
2019-02-17T09:16:10.307Z,63.51
2019-02-17T09:18:39.777Z,63.28
2019-02-17T09:21:09.365Z,62.93
2019-02-17T09:23:38.914Z,62.66
2019-02-17T09:26:08.417Z,62.33
2019-02-17T09:28:37.863Z,61.98
2019-02-17T09:31:07.352Z,61.80
2019-02-17T09:33:37.808Z,61.66
2019-02-17T09:36:07.230Z,61.39
2019-02-17T09:38:36.693Z,61.01
2019-02-17T09:41:06.093Z,60.72
2019-02-17T09:43:35.540Z,60.38
2019-02-17T09:46:04.961Z,60.02
2019-02-17T09:48:34.511Z,59.76
2019-02-17T09:51:04.396Z,59.69
2019-02-17T09:53:34.293Z,59.29
2019-02-17T09:56:04.472Z,58.79
2019-02-17T09:58:34.023Z,58.52
2019-02-17T10:01:04.385Z,58.11
2019-02-17T10:03:33.916Z,57.79
2019-02-17T10:06:04.440Z,57.64
2019-02-17T10:08:33.998Z,57.30
2019-02-17T10:11:04.774Z,57.00
2019-02-17T10:13:34.517Z,56.65
2019-02-17T10:16:04.387Z,56.13
2019-02-17T10:18:33.925Z,55.85
2019-02-17T10:21:04.554Z,55.75
2019-02-17T10:23:33.980Z,55.42
2019-02-17T10:26:04.442Z,55.14
2019-02-17T10:28:42.136Z,54.68
2019-02-17T10:31:05.216Z,54.62
2019-02-17T10:33:35.120Z,54.20
2019-02-17T10:36:04.584Z,53.96
2019-02-17T10:38:34.114Z,53.94
2019-02-17T10:41:04.329Z,53.38
2019-02-17T10:43:33.847Z,53.38
2019-02-17T10:46:03.268Z,53.10
2019-02-17T10:48:32.787Z,52.97
2019-02-17T10:51:02.419Z,52.74
2019-02-17T10:53:31.989Z,52.18
2019-02-17T10:56:01.945Z,52.06
2019-02-17T10:58:32.009Z,51.60
2019-02-17T11:01:03.024Z,51.33
2019-02-17T11:03:32.533Z,51.30
2019-02-17T11:06:01.959Z,51.54
2019-02-17T11:08:31.494Z,51.50
2019-02-17T11:11:00.914Z,51.61
2019-02-17T11:13:30.333Z,51.59
2019-02-17T11:16:00.078Z,51.60
2019-02-17T11:18:29.768Z,51.59
2019-02-17T11:20:59.687Z,51.66
2019-02-17T11:23:29.191Z,51.47
2019-02-17T11:25:58.635Z,51.02
2019-02-17T11:28:28.135Z,50.84
2019-02-17T11:30:57.616Z,51.00
2019-02-17T11:33:27.328Z,50.82
2019-02-17T11:35:56.761Z,50.72
2019-02-17T11:38:26.279Z,50.84
2019-02-17T11:40:56.834Z,51.12
2019-02-17T11:43:26.523Z,51.01
2019-02-17T11:45:55.955Z,50.81
2019-02-17T11:48:25.462Z,50.85
2019-02-17T11:50:54.903Z,50.76
2019-02-17T11:53:24.422Z,50.47
2019-02-17T11:55:53.840Z,50.17
2019-02-17T11:58:23.315Z,49.99
2019-02-17T12:00:52.792Z,49.75
2019-02-17T12:03:22.566Z,49.72
2019-02-17T12:05:52.290Z,49.57
2019-02-17T12:08:21.787Z,49.17
2019-02-17T12:10:51.300Z,49.12
2019-02-17T12:13:20.734Z,48.98
2019-02-17T12:15:50.191Z,48.94
2019-02-17T12:18:20.245Z,48.74
2019-02-17T12:21:00.219Z,48.69
2019-02-17T12:23:31.727Z,48.75
2019-02-17T12:26:08.583Z,48.54
2019-02-17T12:28:39.764Z,48.21
2019-02-17T12:31:09.667Z,47.34
2019-02-17T12:33:39.691Z,46.82
2019-02-17T12:36:09.289Z,45.80
2019-02-17T12:38:38.862Z,45.44
2019-02-17T12:41:08.321Z,45.48
2019-02-17T12:43:37.929Z,45.95
2019-02-17T12:46:07.641Z,46.53
2019-02-17T12:48:37.059Z,46.53
2019-02-17T12:51:06.878Z,45.83
2019-02-17T12:53:36.385Z,45.51
2019-02-17T12:56:05.901Z,45.25
2019-02-17T12:58:35.415Z,44.72
2019-02-17T13:01:05.479Z,44.73
2019-02-17T13:03:34.931Z,44.33
2019-02-17T13:06:04.538Z,44.40
2019-02-17T13:08:33.952Z,44.57
2019-02-17T13:11:04.608Z,44.79
2019-02-17T13:13:34.055Z,44.82
2019-02-17T13:16:04.581Z,45.02
2019-02-17T13:18:34.022Z,45.17
2019-02-17T13:21:04.473Z,45.24
2019-02-17T13:23:35.075Z,45.41
2019-02-17T13:26:04.746Z,45.56
2019-02-17T13:28:34.174Z,45.06
2019-02-17T13:31:04.606Z,45.30
2019-02-17T13:33:39.218Z,45.06
2019-02-17T13:36:05.372Z,45.01
2019-02-17T13:38:34.933Z,45.04
2019-02-17T13:41:04.646Z,45.08
2019-02-17T13:43:34.477Z,45.24
2019-02-17T13:46:04.324Z,45.16
2019-02-17T13:48:40.871Z,45.44
2019-02-17T13:51:10.279Z,45.48
2019-02-17T13:53:39.874Z,45.81
2019-02-17T13:56:09.514Z,45.76
2019-02-17T13:58:39.026Z,45.92
2019-02-17T14:01:08.457Z,46.08
2019-02-17T14:03:37.964Z,46.23
2019-02-17T14:06:07.539Z,46.81
2019-02-17T14:08:37.621Z,47.16
2019-02-17T14:11:07.146Z,47.63
2019-02-17T14:13:36.552Z,47.94
2019-02-17T14:16:06.166Z,48.39
2019-02-17T14:18:35.612Z,48.51
2019-02-17T14:21:05.260Z,49.23
2019-02-17T14:23:34.715Z,49.23
2019-02-17T14:26:04.485Z,49.15
2019-02-17T14:28:35.493Z,49.27
2019-02-17T14:31:05.050Z,49.43
2019-02-17T14:33:34.568Z,49.33
2019-02-17T14:36:04.628Z,49.76
2019-02-17T14:38:35.081Z,49.82
2019-02-17T14:41:04.677Z,49.52
2019-02-17T14:43:34.104Z,49.57
2019-02-17T14:46:04.715Z,49.36
2019-02-17T14:48:34.131Z,49.52
2019-02-17T14:51:04.408Z,49.87
2019-02-17T14:53:34.021Z,50.20
2019-02-17T14:56:04.587Z,50.48
2019-02-17T14:58:34.084Z,50.73
2019-02-17T15:01:04.479Z,50.65
2019-02-17T15:03:34.000Z,50.55
2019-02-17T15:06:04.444Z,50.15
2019-02-17T15:08:34.184Z,49.17
2019-02-17T15:11:04.584Z,48.68
2019-02-17T15:13:34.023Z,48.40
2019-02-17T15:16:04.441Z,47.71
2019-02-17T15:18:33.946Z,47.39
2019-02-17T15:21:04.543Z,47.47
2019-02-17T15:23:34.000Z,46.97
2019-02-17T15:26:04.527Z,47.03
2019-02-17T15:28:33.962Z,47.01
2019-02-17T15:31:04.523Z,47.07
2019-02-17T15:33:34.174Z,47.29
2019-02-17T15:36:04.526Z,47.39
2019-02-17T15:38:34.047Z,47.46
2019-02-17T15:41:04.544Z,47.56
2019-02-17T15:43:34.095Z,47.58
2019-02-17T15:46:04.496Z,47.79
2019-02-17T15:48:34.086Z,48.06
2019-02-17T15:51:06.743Z,48.18
2019-02-17T15:53:35.683Z,49.15
2019-02-17T15:56:05.163Z,49.53
2019-02-17T15:58:34.698Z,49.88
2019-02-17T16:01:05.053Z,49.99
2019-02-17T16:03:34.599Z,50.11
2019-02-17T16:06:04.662Z,50.32
2019-02-17T16:08:35.177Z,50.44
2019-02-17T16:11:04.718Z,50.74
2019-02-17T16:13:34.543Z,50.92
2019-02-17T16:16:04.696Z,51.15
2019-02-17T16:18:34.244Z,51.47
2019-02-17T16:21:04.557Z,51.84
2019-02-17T16:23:33.992Z,52.07
2019-02-17T16:26:03.657Z,52.45
2019-02-17T16:28:33.085Z,52.91
2019-02-17T16:31:02.705Z,53.32
2019-02-17T16:33:32.696Z,53.75
2019-02-17T16:36:02.258Z,54.12
2019-02-17T16:38:31.932Z,54.48
2019-02-17T16:41:01.348Z,55.07
2019-02-17T16:43:30.892Z,55.39
2019-02-17T16:46:00.329Z,55.70
2019-02-17T16:48:30.066Z,56.25
2019-02-17T16:51:00.949Z,56.40
2019-02-17T16:53:31.832Z,56.69
2019-02-17T16:56:01.280Z,57.19
2019-02-17T16:58:30.862Z,57.62
2019-02-17T17:01:00.394Z,57.81
2019-02-17T17:03:29.948Z,58.26
2019-02-17T17:05:59.513Z,58.67
2019-02-17T17:08:29.194Z,59.03
2019-02-17T17:10:58.726Z,59.32
2019-02-17T17:13:28.280Z,59.60
2019-02-17T17:15:57.697Z,60.10
2019-02-17T17:18:27.276Z,60.37
2019-02-17T17:20:56.772Z,60.64
2019-02-17T17:23:26.219Z,61.22
2019-02-17T17:25:55.899Z,61.64
2019-02-17T17:28:25.989Z,61.70
2019-02-17T17:30:56.388Z,62.00
2019-02-17T17:33:25.997Z,62.31
2019-02-17T17:35:55.401Z,62.86
2019-02-17T17:38:25.104Z,63.25
2019-02-17T17:40:54.598Z,63.26
2019-02-17T17:43:24.013Z,63.61
2019-02-17T17:45:53.580Z,63.89
2019-02-17T17:48:23.213Z,64.07
2019-02-17T17:50:52.626Z,64.25
2019-02-17T17:53:22.220Z,64.72
2019-02-17T17:55:51.788Z,65.22
2019-02-17T17:58:21.268Z,65.50
2019-02-17T18:00:50.817Z,65.71
2019-02-17T18:03:20.369Z,65.79
2019-02-17T18:05:49.780Z,65.95
2019-02-17T18:08:19.313Z,66.30
2019-02-17T18:10:48.722Z,66.50
2019-02-17T18:13:18.372Z,66.59
2019-02-17T18:15:47.771Z,66.82
2019-02-17T18:18:18.491Z,66.98
2019-02-17T18:20:47.982Z,67.21
2019-02-17T18:23:18.487Z,67.54
2019-02-17T18:25:48.979Z,67.77
2019-02-17T18:28:18.561Z,68.17
2019-02-17T18:30:48.062Z,68.21
2019-02-17T18:33:18.619Z,68.39
2019-02-17T18:35:48.086Z,68.71
2019-02-17T18:38:17.640Z,68.96
2019-02-17T18:40:47.941Z,69.08
2019-02-17T18:43:17.944Z,69.54
2019-02-17T18:45:47.349Z,69.73
2019-02-17T18:48:17.153Z,69.72
2019-02-17T18:50:46.799Z,69.87
2019-02-17T18:53:16.783Z,70.09
2019-02-17T18:55:47.010Z,70.18
2019-02-17T18:58:16.937Z,70.32
2019-02-17T19:00:46.442Z,70.71
2019-02-17T19:03:15.991Z,71.02
2019-02-17T19:05:46.312Z,71.15
2019-02-17T19:08:16.527Z,71.28
2019-02-17T19:10:45.993Z,71.36
2019-02-17T19:13:15.618Z,71.50
2019-02-17T19:15:45.251Z,71.66
2019-02-17T19:18:14.793Z,71.93
2019-02-17T19:20:44.366Z,71.90
2019-02-17T19:23:13.771Z,72.14
2019-02-17T19:25:43.381Z,72.60
2019-02-17T19:28:12.774Z,72.66
2019-02-17T19:30:42.386Z,72.90
2019-02-17T19:33:11.834Z,72.97
2019-02-17T19:35:42.370Z,72.96
2019-02-17T19:38:12.016Z,72.96
2019-02-17T19:40:41.941Z,73.07
2019-02-17T19:43:11.714Z,73.15
2019-02-17T19:45:41.246Z,73.25
2019-02-17T19:48:10.736Z,73.32
2019-02-17T19:50:40.403Z,73.39
2019-02-17T19:53:10.183Z,73.60
2019-02-17T19:55:39.812Z,74.12
2019-02-17T19:58:09.338Z,74.10
2019-02-17T20:00:38.951Z,74.25
2019-02-17T20:03:10.012Z,74.34
2019-02-17T20:05:59.208Z,74.41
2019-02-17T20:08:29.696Z,74.57
2019-02-17T20:10:59.265Z,74.51
2019-02-17T20:13:28.678Z,74.61
2019-02-17T20:15:58.320Z,74.88
2019-02-17T20:18:27.878Z,75.01
2019-02-17T20:20:57.288Z,75.11
2019-02-17T20:23:26.830Z,75.24
2019-02-17T20:25:57.987Z,75.14
2019-02-17T20:28:40.539Z,75.28
2019-02-17T20:30:59.014Z,75.40
2019-02-17T20:33:28.633Z,75.35
2019-02-17T20:36:02.744Z,75.86
2019-02-17T20:38:29.364Z,76.83
2019-02-17T20:40:59.295Z,76.83
2019-02-17T20:43:28.828Z,76.61
2019-02-17T20:45:58.253Z,76.42
2019-02-17T20:48:27.770Z,76.37
2019-02-17T20:50:57.302Z,76.41
2019-02-17T20:53:26.716Z,76.35
2019-02-17T20:55:56.280Z,76.48
2019-02-17T20:58:25.816Z,76.37
2019-02-17T21:00:55.719Z,76.52
2019-02-17T21:03:25.146Z,76.40
2019-02-17T21:05:54.676Z,76.39
2019-02-17T21:08:24.094Z,76.53
2019-02-17T21:10:54.445Z,76.51
2019-02-17T21:13:24.038Z,76.29
2019-02-17T21:15:53.572Z,76.67
2019-02-17T21:18:23.163Z,76.66
2019-02-17T21:20:52.669Z,76.57
2019-02-17T21:23:22.176Z,76.62
2019-02-17T21:25:51.694Z,76.71
2019-02-17T21:28:21.144Z,76.74
2019-02-17T21:30:50.742Z,76.75
2019-02-17T21:33:20.105Z,76.73
2019-02-17T21:35:49.767Z,76.68
2019-02-17T21:38:19.390Z,76.65
2019-02-17T21:40:48.884Z,77.03
2019-02-17T21:43:20.153Z,77.16
2019-02-17T21:45:49.583Z,77.20
2019-02-17T21:48:19.087Z,77.14
2019-02-17T21:50:48.558Z,77.26
2019-02-17T21:53:20.848Z,77.28
2019-02-17T21:55:49.174Z,77.30
2019-02-17T21:58:18.590Z,77.33
2019-02-17T22:00:48.098Z,77.27
2019-02-17T22:03:17.548Z,77.25
2019-02-17T22:05:47.017Z,77.35
2019-02-17T22:08:16.556Z,77.35
2019-02-17T22:10:45.980Z,77.59
2019-02-17T22:13:15.490Z,77.61
2019-02-17T22:15:44.947Z,77.62
2019-02-17T22:18:14.495Z,77.52
2019-02-17T22:20:43.948Z,77.68
2019-02-17T22:23:13.439Z,77.50
2019-02-17T22:25:42.932Z,77.62
2019-02-17T22:28:12.315Z,77.74
2019-02-17T22:30:41.756Z,77.71
2019-02-17T22:33:11.217Z,77.85
2019-02-17T22:35:40.625Z,77.89
2019-02-17T22:38:10.085Z,77.99
2019-02-17T22:40:39.499Z,78.01
2019-02-17T22:43:08.953Z,77.96
2019-02-17T22:45:38.491Z,77.99
2019-02-17T22:48:07.947Z,78.09
2019-02-17T22:50:37.354Z,77.99
2019-02-17T22:53:06.818Z,77.96
2019-02-17T22:55:36.255Z,77.97
2019-02-17T22:58:05.727Z,78.03
2019-02-17T23:00:45.812Z,78.11
2019-02-17T23:03:15.602Z,78.16
2019-02-17T23:05:45.011Z,78.17
2019-02-17T23:08:14.460Z,78.07
2019-02-17T23:10:43.946Z,78.03
2019-02-17T23:13:13.374Z,77.97
2019-02-17T23:15:42.829Z,77.92
2019-02-17T23:18:12.290Z,77.94
2019-02-17T23:20:42.694Z,78.04
2019-02-17T23:23:12.165Z,78.16
2019-02-17T23:25:41.575Z,78.31
2019-02-17T23:28:11.243Z,78.29
2019-02-17T23:30:40.669Z,78.65
2019-02-17T23:33:10.133Z,78.68
2019-02-17T23:35:39.539Z,78.69
2019-02-17T23:38:08.984Z,78.82
2019-02-17T23:40:38.440Z,78.82
2019-02-17T23:43:07.885Z,78.77
2019-02-17T23:45:37.316Z,78.75
2019-02-17T23:48:06.770Z,78.70
2019-02-17T23:50:36.171Z,78.73
2019-02-17T23:53:05.640Z,78.78
2019-02-17T23:55:35.167Z,78.77
2019-02-17T23:58:04.607Z,78.95
